TimeCST,TemperatureF,Dew PointF,Humidity,Sea Level PressureIn,VisibilityMPH,Wind Direction,Wind SpeedMPH,Gust SpeedMPH,PrecipitationIn,Events,Conditions,WindDirDegrees,DateUTC
12:53 AM,28.0,19.9,72,30.39,10.0,West,12.7,-,N/A,,Clear,280,2013-01-06 06:53:00
1:53 AM,26.1,19.0,75,30.39,10.0,WSW,6.9,-,N/A,,Clear,240,2013-01-06 07:53:00
2:53 AM,25.0,18.0,75,30.39,10.0,Variable,3.5,-,N/A,,Clear,0,2013-01-06 08:53:00
3:53 AM,23.0,17.1,78,30.39,10.0,SW,4.6,-,N/A,,Clear,230,2013-01-06 09:53:00
4:53 AM,25.0,17.1,72,30.38,10.0,WSW,6.9,-,N/A,,Clear,250,2013-01-06 10:53:00
5:53 AM,23.0,15.1,72,30.38,10.0,Calm,Calm,-,N/A,,Clear,0,2013-01-06 11:53:00
6:53 AM,21.0,14.0,74,30.40,10.0,Calm,Calm,-,N/A,,Clear,0,2013-01-06 12:53:00
7:53 AM,21.9,14.0,72,30.41,10.0,Calm,Calm,-,N/A,,Clear,0,2013-01-06 13:53:00
8:53 AM,25.0,17.1,72,30.41,10.0,WSW,3.5,-,N/A,,Clear,240,2013-01-06 14:53:00
9:53 AM,33.1,21.9,64,30.40,10.0,Calm,Calm,-,N/A,,Clear,0,2013-01-06 15:53:00
10:53 AM,41.0,24.1,51,30.39,10.0,WSW,10.4,-,N/A,,Clear,240,2013-01-06 16:53:00
11:53 AM,45.0,24.1,44,30.36,10.0,SW,17.3,-,N/A,,Clear,220,2013-01-06 17:53:00
12:53 PM,46.9,25.0,42,30.31,10.0,SW,17.3,-,N/A,,Clear,220,2013-01-06 18:53:00
1:53 PM,48.0,25.0,41,30.27,10.0,SSW,20.7,27.6,N/A,,Clear,210,2013-01-06 19:53:00
3:53 PM,46.9,26.1,44,30.23,10.0,SSW,18.4,-,N/A,,Clear,200,2013-01-06 21:53:00
4:53 PM,46.0,26.1,46,30.22,10.0,SSW,15.0,-,N/A,,Clear,200,2013-01-06 22:53:00
5:53 PM,39.0,27.0,62,30.22,10.0,South,6.9,-,N/A,,Clear,180,2013-01-06 23:53:00
6:53 PM,35.1,26.1,70,30.23,10.0,South,9.2,-,N/A,,Clear,190,2013-01-07 00:53:00
7:53 PM,35.1,26.1,70,30.23,10.0,South,10.4,-,N/A,,Clear,190,2013-01-07 01:53:00
9:53 PM,36.0,24.1,62,30.18,10.0,South,13.8,-,N/A,,Clear,190,2013-01-07 03:53:00
10:53 PM,36.0,24.1,62,30.15,10.0,SSW,15.0,-,N/A,,Clear,200,2013-01-07 04:53:00
11:53 PM,36.0,24.1,62,30.13,10.0,SSW,16.1,-,N/A,,Clear,200,2013-01-07 05:53:00